Time;durP1;ratioP1;P1;durP2;ratioP2;P2;SDS_P1;SDS_P2;PMS_P1;PMS_P2;Temp;Humidity;BMP_temperature;BMP_pressure;BME280_temperature;BME280_humidity;BME280_pressure;Samples;Min_cycle;Max_cycle;Signal;HPM_P1;HPM_P2
2022/09/15 00:00:51;;;;;;;;;;;;;;;;;;5026653;28;19931;-67
2022/09/15 00:03:17;;;;;;;;;;;;;;;;;;5023369;28;19943;-67
2022/09/15 00:05:43;;;;;;;;;;;;;;;;;;5025015;28;20084;-68
2022/09/15 00:08:09;;;;;;;;;;;;;;;;;;5021681;28;19931;-67
2022/09/15 00:10:35;;;;;;;;;;;;;;;;;;5023685;28;20057;-68
2022/09/15 00:13:01;;;;;;;;;;;;;;;;;;5025297;28;19925;-67
2022/09/15 00:15:27;;;;;;;;;;;;;;;;;;5025857;28;20225;-67
2022/09/15 00:17:53;;;;;;;;;;;;;;;;;;5026467;28;20442;-67
2022/09/15 00:20:19;;;;;;;;;;;;;;;;;;5024593;28;20538;-67
2022/09/15 00:22:45;;;;;;;;;;;;;;;;;;5026677;28;19964;-67
2022/09/15 00:25:11;;;;;;;;;;;;;;;;;;5025498;28;19968;-67
2022/09/15 00:27:37;;;;;;;;;;;;;;;;;;5023904;28;20379;-67
2022/09/15 00:30:03;;;;;;;;;;;;;;;;;;5024985;28;19920;-67
2022/09/15 00:32:29;;;;;;;;;;;;;;;;;;5025166;28;19932;-67
2022/09/15 00:34:54;;;;;;;;;;;;;;;;;;5026530;28;20493;-67
2022/09/15 00:37:20;;;;;;;;;;;;;;;;;;5024877;28;19925;-67
2022/09/15 00:39:46;;;;;;;;;;;;;;;;;;5026555;28;19979;-67
2022/09/15 00:42:12;;;;;;;;;;;;;;;;;;5025681;28;20319;-67
2022/09/15 00:44:38;;;;;;;;;;;;;;;;;;5023680;28;19931;-67
2022/09/15 00:47:04;;;;;;;;;;;;;;;;;;5021569;28;20299;-67
2022/09/15 00:49:30;;;;;;;;;;;;;;;;;;5025103;28;19929;-67
2022/09/15 00:51:56;;;;;;;;;;;;;;;;;;5025030;28;19970;-67
2022/09/15 00:54:22;;;;;;;;;;;;;;;;;;5024308;28;19990;-67
2022/09/15 00:56:48;;;;;;;;;;;;;;;;;;5019411;28;20363;-67
2022/09/15 00:59:14;;;;;;;;;;;;;;;;;;5025084;28;20251;-67
2022/09/15 01:01:40;;;;;;;;;;;;;;;;;;5025287;28;19924;-67
2022/09/15 01:04:05;;;;;;;;;;;;;;;;;;5025294;28;19964;-67
2022/09/15 01:06:31;;;;;;;;;;;;;;;;;;5022716;28;20044;-67
2022/09/15 01:08:57;;;;;;;;;;;;;;;;;;5025449;28;20035;-67
2022/09/15 01:11:23;;;;;;;;;;;;;;;;;;5025157;28;19967;-67
2022/09/15 01:13:49;;;;;;;;;;;;;;;;;;5023997;28;19925;-67
2022/09/15 01:16:15;;;;;;;;;;;;;;;;;;5024211;28;20375;-67
2022/09/15 01:18:41;;;;;;;;;;;;;;;;;;5024255;28;19982;-67
2022/09/15 01:21:07;;;;;;;;;;;;;;;;;;5023810;28;19921;-67
2022/09/15 01:23:33;;;;;;;;;;;;;;;;;;5024712;28;19925;-67
2022/09/15 01:25:59;;;;;;;;;;;;;;;;;;5025315;28;20264;-67
2022/09/15 01:28:26;;;;;;;;;;;;;;;;;;5023989;28;19921;-67
2022/09/15 01:30:52;;;;;;;;;;;;;;;;;;5021895;28;19926;-67
2022/09/15 01:33:18;;;;;;;;;;;;;;;;;;5024503;28;19923;-67
2022/09/15 01:35:44;;;;;;;;;;;;;;;;;;5021603;28;20000;-67
2022/09/15 01:38:10;;;;;;;;;;;;;;;;;;5022283;28;19925;-67
2022/09/15 01:40:36;;;;;;;;;;;;;;;;;;5023228;28;20022;-67
2022/09/15 01:43:02;;;;;;;;;;;;;;;;;;5025279;28;19983;-67
2022/09/15 01:45:28;;;;;;;;;;;;;;;;;;5024078;28;19928;-67
2022/09/15 01:47:54;;;;;;;;;;;;;;;;;;5024431;28;20012;-67
2022/09/15 01:50:20;;;;;;;;;;;;;;;;;;5022578;28;19925;-67
2022/09/15 01:52:47;;;;;;;;;;;;;;;;;;5020123;28;19963;-67
2022/09/15 01:55:13;;;;;;;;;;;;;;;;;;5019585;28;19921;-67
2022/09/15 01:57:39;;;;;;;;;;;;;;;;;;5023568;28;19932;-67
2022/09/15 02:00:05;;;;;;;;;;;;;;;;;;5023933;28;20330;-67
2022/09/15 02:02:31;;;;;;;;;;;;;;;;;;5022037;28;19933;-67
2022/09/15 02:04:57;;;;;;;;;;;;;;;;;;5022273;28;19925;-67
2022/09/15 02:07:23;;;;;;;;;;;;;;;;;;5021138;28;19999;-67
2022/09/15 02:09:49;;;;;;;;;;;;;;;;;;5023210;28;19941;-67
2022/09/15 02:12:16;;;;;;;;;;;;;;;;;;5023595;28;19932;-67
2022/09/15 02:14:42;;;;;;;;;;;;;;;;;;5021835;28;19932;-67
2022/09/15 02:17:08;;;;;;;;;;;;;;;;;;5021402;28;19925;-67
2022/09/15 02:19:34;;;;;;;;;;;;;;;;;;5022275;28;19927;-67
2022/09/15 02:22:01;;;;;;;;;;;;;;;;;;5023579;28;19951;-67
2022/09/15 02:24:27;;;;;;;;;;;;;;;;;;5021611;28;19932;-67
2022/09/15 02:26:54;;;;;;;;;;;;;;;;;;5023903;28;19925;-67
2022/09/15 02:29:20;;;;;;;;;;;;;;;;;;5020844;28;20015;-67
2022/09/15 02:31:46;;;;;;;;;;;;;;;;;;5022626;28;20399;-67
2022/09/15 02:34:11;;;;;;;;;;;;;;;;;;5023257;28;19931;-67
2022/09/15 02:36:37;;;;;;;;;;;;;;;;;;5022496;28;19933;-67
2022/09/15 02:39:03;;;;;;;;;;;;;;;;;;5022849;28;19927;-67
2022/09/15 02:41:29;;;;;;;;;;;;;;;;;;5020556;28;20276;-67
2022/09/15 02:43:55;;;;;;;;;;;;;;;;;;5022375;28;19928;-67
2022/09/15 02:46:21;;;;;;;;;;;;;;;;;;5021249;28;19956;-67
2022/09/15 02:48:47;;;;;;;;;;;;;;;;;;5023224;28;20364;-67
2022/09/15 02:51:13;;;;;;;;;;;;;;;;;;5020809;28;19925;-67
2022/09/15 02:53:39;;;;;;;;;;;;;;;;;;5022446;28;20056;-67
2022/09/15 02:56:05;;;;;;;;;;;;;;;;;;5023433;28;19925;-67
2022/09/15 02:58:31;;;;;;;;;;;;;;;;;;5021237;28;20019;-67
2022/09/15 03:00:57;;;;;;;;;;;;;;;;;;5022861;28;19917;-67
2022/09/15 03:03:23;;;;;;;;;;;;;;;;;;5020687;28;19952;-67
2022/09/15 03:05:49;;;;;;;;;;;;;;;;;;5020668;28;19948;-68
2022/09/15 03:08:14;;;;;;;;;;;;;;;;;;5021711;28;19925;-67
2022/09/15 03:10:40;;;;;;;;;;;;;;;;;;5020747;28;20564;-67
2022/09/15 03:13:07;;;;;;;;;;;;;;;;;;5022525;28;19925;-67
2022/09/15 03:15:33;;;;;;;;;;;;;;;;;;5021700;28;19929;-67
2022/09/15 03:17:59;;;;;;;;;;;;;;;;;;5018709;28;19925;-67
2022/09/15 03:20:27;;;;;;;;;;;;;;;;;;5020309;28;19928;-67
2022/09/15 03:22:53;;;;;;;;;;;;;;;;;;5023495;28;20879;-67
2022/09/15 03:25:19;;;;;;;;;;;;;;;;;;5019847;28;19921;-67
2022/09/15 03:27:45;;;;;;;;;;;;;;;;;;5019384;28;20308;-67
2022/09/15 03:30:11;;;;;;;;;;;;;;;;;;5022768;28;19924;-67
2022/09/15 03:32:37;;;;;;;;;;;;;;;;;;5020732;28;19964;-67
2022/09/15 03:35:03;;;;;;;;;;;;;;;;;;5021846;28;20426;-67
2022/09/15 03:37:29;;;;;;;;;;;;;;;;;;5021375;28;19956;-67
2022/09/15 03:39:54;;;;;;;;;;;;;;;;;;5021398;28;19944;-67
2022/09/15 03:42:20;;;;;;;;;;;;;;;;;;5019736;28;20020;-67
2022/09/15 03:44:46;;;;;;;;;;;;;;;;;;5021361;28;19924;-67
2022/09/15 03:47:12;;;;;;;;;;;;;;;;;;5020417;28;20563;-67
2022/09/15 03:49:38;;;;;;;;;;;;;;;;;;5020079;28;19924;-67
2022/09/15 03:52:04;;;;;;;;;;;;;;;;;;5022747;28;19983;-67
2022/09/15 03:54:30;;;;;;;;;;;;;;;;;;5020797;28;19944;-67
2022/09/15 03:56:56;;;;;;;;;;;;;;;;;;5020456;28;19921;-67
2022/09/15 03:59:22;;;;;;;;;;;;;;;;;;5022973;28;19924;-67
2022/09/15 04:01:49;;;;;;;;;;;;;;;;;;5023532;28;20322;-67
2022/09/15 04:04:14;;;;;;;;;;;;;;;;;;5025581;28;19932;-67
2022/09/15 04:06:40;;;;;;;;;;;;;;;;;;5024550;28;19925;-67
2022/09/15 04:09:06;;;;;;;;;;;;;;;;;;5025316;28;20055;-67
2022/09/15 04:11:32;;;;;;;;;;;;;;;;;;5023633;28;19933;-67
2022/09/15 04:13:58;;;;;;;;;;;;;;;;;;5026022;28;19933;-67
2022/09/15 04:16:24;;;;;;;;;;;;;;;;;;5023544;28;19928;-67
2022/09/15 04:18:50;;;;;;;;;;;;;;;;;;5024652;28;20322;-67
2022/09/15 04:21:16;;;;;;;;;;;;;;;;;;5025629;28;20653;-67
2022/09/15 04:23:42;;;;;;;;;;;;;;;;;;5023660;28;19971;-67
2022/09/15 04:26:08;;;;;;;;;;;;;;;;;;5025268;28;20403;-67
2022/09/15 04:28:34;;;;;;;;;;;;;;;;;;5023061;28;19921;-68
2022/09/15 04:31:00;;;;;;;;;;;;;;;;;;5023084;28;19925;-67
2022/09/15 04:33:26;;;;;;;;;;;;;;;;;;5023468;28;19924;-67
2022/09/15 04:35:52;;;;;;;;;;;;;;;;;;5026042;28;19928;-67
2022/09/15 04:38:18;;;;;;;;;;;;;;;;;;5021463;28;19925;-67
2022/09/15 04:40:44;;;;;;;;;;;;;;;;;;5024543;28;19925;-67
2022/09/15 04:43:10;;;;;;;;;;;;;;;;;;5024049;28;20407;-67
2022/09/15 04:45:36;;;;;;;;;;;;;;;;;;5019996;28;19921;-67
2022/09/15 04:48:02;;;;;;;;;;;;;;;;;;5023824;28;20306;-67
2022/09/15 04:50:27;;;;;;;;;;;;;;;;;;5022531;28;19925;-67
2022/09/15 04:52:53;;;;;;;;;;;;;;;;;;5025359;28;20040;-67
2022/09/15 04:55:19;;;;;;;;;;;;;;;;;;5024330;28;20003;-67
2022/09/15 04:57:45;;;;;;;;;;;;;;;;;;5022157;28;20067;-67
2022/09/15 05:00:11;;;;;;;;;;;;;;;;;;5023496;28;19925;-67
2022/09/15 05:02:37;;;;;;;;;;;;;;;;;;5021999;28;19943;-67
2022/09/15 05:05:03;;;;;;;;;;;;;;;;;;5022935;28;19925;-67
2022/09/15 05:07:29;;;;;;;;;;;;;;;;;;5023492;28;19921;-67
2022/09/15 05:09:55;;;;;;;;;;;;;;;;;;5023926;28;20394;-67
2022/09/15 05:12:21;;;;;;;;;;;;;;;;;;5021393;28;19925;-67
2022/09/15 05:14:47;;;;;;;;;;;;;;;;;;5023081;28;19932;-67
2022/09/15 05:17:13;;;;;;;;;;;;;;;;;;5022659;28;19925;-67
2022/09/15 05:19:39;;;;;;;;;;;;;;;;;;5022745;28;20318;-67
2022/09/15 05:22:05;;;;;;;;;;;;;;;;;;5022072;28;19928;-67
2022/09/15 05:24:30;;;;;;;;;;;;;;;;;;5021191;28;19975;-67
2022/09/15 05:26:56;;;;;;;;;;;;;;;;;;5024187;28;20411;-67
2022/09/15 05:29:22;;;;;;;;;;;;;;;;;;5023856;28;20394;-67
2022/09/15 05:31:48;;;;;;;;;;;;;;;;;;5022516;28;19971;-67
2022/09/15 05:34:14;;;;;;;;;;;;;;;;;;5022320;28;19924;-67
2022/09/15 05:36:40;;;;;;;;;;;;;;;;;;5022491;28;19934;-67
2022/09/15 05:39:06;;;;;;;;;;;;;;;;;;5023868;28;19935;-67
2022/09/15 05:41:32;;;;;;;;;;;;;;;;;;5021947;28;19925;-67
2022/09/15 05:43:58;;;;;;;;;;;;;;;;;;5024073;28;19928;-67
2022/09/15 05:46:24;;;;;;;;;;;;;;;;;;5017297;28;19928;-67
2022/09/15 05:48:50;;;;;;;;;;;;;;;;;;5020589;28;20003;-67
2022/09/15 05:51:16;;;;;;;;;;;;;;;;;;5022174;28;20480;-67
2022/09/15 05:53:42;;;;;;;;;;;;;;;;;;5021807;28;19986;-67
2022/09/15 05:56:08;;;;;;;;;;;;;;;;;;5021834;28;19951;-67
2022/09/15 05:58:34;;;;;;;;;;;;;;;;;;5019764;28;19925;-67
2022/09/15 06:01:00;;;;;;;;;;;;;;;;;;5021124;28;19971;-67
2022/09/15 06:03:26;;;;;;;;;;;;;;;;;;5022609;28;20630;-67
2022/09/15 06:05:52;;;;;;;;;;;;;;;;;;5023029;28;19978;-67
2022/09/15 06:08:18;;;;;;;;;;;;;;;;;;5020654;28;20520;-67
2022/09/15 06:10:44;;;;;;;;;;;;;;;;;;5022272;28;19925;-67
2022/09/15 06:13:10;;;;;;;;;;;;;;;;;;5022240;28;19921;-67
2022/09/15 06:15:36;;;;;;;;;;;;;;;;;;5020992;28;20420;-67
2022/09/15 06:18:01;;;;;;;;;;;;;;;;;;5022361;28;20525;-68
2022/09/15 06:20:27;;;;;;;;;;;;;;;;;;5019898;28;20027;-68
2022/09/15 06:22:54;;;;;;;;;;;;;;;;;;5021549;28;19921;-67
2022/09/15 06:25:20;;;;;;;;;;;;;;;;;;5021791;28;20512;-67
2022/09/15 06:27:46;;;;;;;;;;;;;;;;;;5021875;28;19925;-67
2022/09/15 06:30:12;;;;;;;;;;;;;;;;;;5019126;28;19975;-67
2022/09/15 06:32:38;;;;;;;;;;;;;;;;;;5018204;28;19929;-68
2022/09/15 06:35:07;;;;;;;;;;;;;;;;;;5017603;28;20326;-67
2022/09/15 06:37:33;;;;;;;;;;;;;;;;;;5020896;28;19967;-67
2022/09/15 06:39:59;;;;;;;;;;;;;;;;;;5012158;28;20043;-67
2022/09/15 06:42:25;;;;;;;;;;;;;;;;;;5015401;28;19956;-67
2022/09/15 06:44:52;;;;;;;;;;;;;;;;;;5018534;28;19971;-67
2022/09/15 06:47:18;;;;;;;;;;;;;;;;;;5021207;28;19925;-67
2022/09/15 06:49:44;;;;;;;;;;;;;;;;;;5022231;28;20668;-67
2022/09/15 06:52:10;;;;;;;;;;;;;;;;;;5021231;28;19931;-67
2022/09/15 06:54:36;;;;;;;;;;;;;;;;;;5021615;28;19925;-67
2022/09/15 06:57:02;;;;;;;;;;;;;;;;;;5021750;28;20008;-67
2022/09/15 06:59:28;;;;;;;;;;;;;;;;;;5019915;28;19967;-67
2022/09/15 07:01:54;;;;;;;;;;;;;;;;;;5019165;28;19924;-67
2022/09/15 07:04:20;;;;;;;;;;;;;;;;;;5021333;28;19921;-67
2022/09/15 07:06:46;;;;;;;;;;;;;;;;;;5019712;28;20720;-67
2022/09/15 07:09:12;;;;;;;;;;;;;;;;;;5021068;28;20019;-67
2022/09/15 07:11:38;;;;;;;;;;;;;;;;;;5018474;28;21015;-67
2022/09/15 07:14:05;;;;;;;;;;;;;;;;;;5023102;28;19932;-67
2022/09/15 07:16:31;;;;;;;;;;;;;;;;;;5022259;28;19925;-67
2022/09/15 07:19:00;;;;;;;;;;;;;;;;;;5020290;28;20070;-68
2022/09/15 07:21:25;;;;;;;;;;;;;;;;;;5018449;28;19968;-68
2022/09/15 07:23:51;;;;;;;;;;;;;;;;;;5021048;28;19975;-68
2022/09/15 07:26:17;;;;;;;;;;;;;;;;;;5020415;28;19925;-69
2022/09/15 07:28:43;;;;;;;;;;;;;;;;;;5021706;28;19928;-69
2022/09/15 07:31:09;;;;;;;;;;;;;;;;;;5013316;28;19932;-69
2022/09/15 07:33:35;;;;;;;;;;;;;;;;;;5005913;28;19917;-69
2022/09/15 07:36:01;;;;;;;;;;;;;;;;;;5008132;28;20470;-63
2022/09/15 07:38:27;;;;;;;;;;;;;;;;;;5008786;28;19964;-68
2022/09/15 07:40:53;;;;;;;;;;;;;;;;;;5008557;28;20402;-69
2022/09/15 07:43:19;;;;;;;;;;;;;;;;;;5021956;28;19921;-69
2022/09/15 07:45:45;;;;;;;;;;;;;;;;;;5027878;28;20351;-69
2022/09/15 07:48:11;;;;;;;;;;;;;;;;;;5025762;28;19925;-69
2022/09/15 07:50:37;;;;;;;;;;;;;;;;;;5028581;28;20011;-69
2022/09/15 07:53:03;;;;;;;;;;;;;;;;;;5024972;28;19932;-69
2022/09/15 07:55:29;;;;;;;0.00;0.00;;;;;;;;;;5024920;28;20383;-69
2022/09/15 07:57:58;;;;;;;0.10;0.10;;;;;;;;;;5027208;28;20057;-69
2022/09/15 08:00:25;;;;;;;0.08;0.08;;;;;;;;;;5026052;28;20053;-70
2022/09/15 08:02:51;;;;;;;;;;;;;;;;;;5025904;28;20049;-69
2022/09/15 08:05:17;;;;;;;;;;;;;;;;;;5025906;28;19994;-68
2022/09/15 08:07:43;;;;;;;;;;;;;;;;;;5025182;28;19925;-70
2022/09/15 08:10:09;;;;;;;0.20;0.17;;;;;;;;;;5025276;28;19925;-70
2022/09/15 08:12:35;;;;;;;1.42;0.13;;;;;;;;;;5024856;28;20076;-70
2022/09/15 08:15:01;;;;;;;0.40;0.20;;;;;;;;;;5018135;28;20057;-69
2022/09/15 08:17:28;;;;;;;;;;;;;;;;;;5027043;28;19925;-70
2022/09/15 08:19:53;;;;;;;;;;;;;;;;;;5025428;28;19936;-70
2022/09/15 08:22:19;;;;;;;;;;;;;;;;;;5026050;28;20272;-76
2022/09/15 08:24:45;;;;;;;;;;;;;;;;;;5019325;28;19921;-76
2022/09/15 08:27:11;;;;;;;;;;;;;;;;;;5022175;28;19932;-76
2022/09/15 08:29:37;;;;;;;0.50;0.20;;;;;;;;;;5018140;28;19921;-76
2022/09/15 08:32:04;;;;;;;1.05;0.40;;;;;;;;;;5027320;28;20049;-76
2022/09/15 08:34:30;;;;;;;0.75;0.17;;;;;;;;;;5019615;28;20508;-74
2022/09/15 08:36:56;;;;;;;0.70;0.20;;;;;;;;;;5020243;28;20054;-75
2022/09/15 08:39:22;;;;;;;;;;;;;;;;;;5023628;28;19921;-76
2022/09/15 08:41:48;;;;;;;;;;;;;;;;;;5019678;28;19921;-75
2022/09/15 08:44:14;;;;;;;;;;;;;;;;;;5014904;28;19925;-77
2022/09/15 08:46:40;;;;;;;;;;;;;;;;;;5027143;28;19975;-78
2022/09/15 08:49:06;;;;;;;;;;;;;;;;;;5024096;28;19968;-75
2022/09/15 08:51:32;;;;;;;;;;;;;;;;;;5021267;28;19978;-76
2022/09/15 08:53:58;;;;;;;;;;;;;;;;;;5020590;28;19921;-75
2022/09/15 08:56:24;;;;;;;;;;;;;;;;;;5026062;28;19921;-77
2022/09/15 08:58:50;;;;;;;;;;;;;;;;;;5023677;28;19957;-76
2022/09/15 09:01:16;;;;;;;;;;;;;;;;;;5026644;28;19928;-74
2022/09/15 09:03:42;;;;;;;;;;;;;;;;;;5022627;28;20013;-74
2022/09/15 09:06:08;;;;;;;;;;;;;;;;;;5022855;28;20290;-73
2022/09/15 09:08:34;;;;;;;;;;;;;;;;;;5023342;28;19928;-72
2022/09/15 09:11:00;;;;;;;;;;;;;;;;;;5022861;28;19928;-74
2022/09/15 09:13:26;;;;;;;;;;;;;;;;;;5022799;28;19925;-72
2022/09/15 09:15:52;;;;;;;;;;;;;;;;;;5012277;28;20269;-73
2022/09/15 09:18:18;;;;;;;;;;;;;;;;;;5010110;28;20295;-73
2022/09/15 09:20:44;;;;;;;;;;;;;;;;;;5016612;28;20437;-72
2022/09/15 09:23:10;;;;;;;;;;;;;;;;;;5012358;28;19921;-73
2022/09/15 09:25:37;;;;;;;;;;;;;;;;;;5021426;28;19925;-73
2022/09/15 09:28:04;;;;;;;;;;;;;;;;;;5013069;28;20059;-73
2022/09/15 09:30:30;;;;;;;;;;;;;;;;;;5016982;28;20284;-73
2022/09/15 09:32:56;;;;;;;;;;;;;;;;;;5017505;28;19921;-73
2022/09/15 09:35:22;;;;;;;;;;;;;;;;;;5020811;28;20055;-74
2022/09/15 09:37:48;;;;;;;;;;;;;;;;;;5022139;28;20284;-74
2022/09/15 09:40:14;;;;;;;;;;;;;;;;;;5023220;28;19925;-74
2022/09/15 09:42:40;;;;;;;;;;;;;;;;;;5010150;28;19921;-74
2022/09/15 09:45:06;;;;;;;;;;;;;;;;;;5024673;28;19951;-74
2022/09/15 09:47:33;;;;;;;;;;;;;;;;;;5013773;28;19983;-73
2022/09/15 09:49:59;;;;;;;;;;;;;;;;;;5012701;28;19952;-77
2022/09/15 09:52:25;;;;;;;;;;;;;;;;;;5005559;28;19928;-74
2022/09/15 09:54:51;;;;;;;;;;;;;;;;;;5002932;28;19980;-74
2022/09/15 09:57:17;;;;;;;;;;;;;;;;;;5019167;28;19988;-74
2022/09/15 09:59:43;;;;;;;;;;;;;;;;;;5021725;28;19932;-74
2022/09/15 10:02:09;;;;;;;;;;;;;;;;;;5023305;28;19921;-74
2022/09/15 10:04:35;;;;;;;;;;;;;;;;;;5020465;28;19975;-73
2022/09/15 10:07:01;;;;;;;0.70;0.30;;;;;;;;;;5025063;28;20058;-74
2022/09/15 10:09:27;;;;;;;1.23;0.38;;;;;;;;;;5023133;28;20006;-73
2022/09/15 10:11:58;;;;;;;0.35;0.35;;;;;;;;;;5019712;28;20081;-73
2022/09/15 10:14:29;;;;;;;1.70;0.77;;;;;;;;;;5018830;28;20054;-73
2022/09/15 10:16:59;;;;;;;1.73;0.60;;;;;;;;;;5022875;28;20396;-76
2022/09/15 10:19:26;;;;;;;1.10;0.43;;;;;;;;;;5023144;28;20046;-74
2022/09/15 10:21:52;;;;;;;;;;;;;;;;;;5025380;28;20041;-72
2022/09/15 10:24:18;;;;;;;;;;;;;;;;;;5025483;28;19975;-73
2022/09/15 10:26:44;;;;;;;;;;;;;;;;;;5024586;28;19921;-72
2022/09/15 10:29:10;;;;;;;;;;;;;;;;;;5023794;28;19921;-65
2022/09/15 10:31:36;;;;;;;;;;;;;;;;;;5024145;28;20007;-73
2022/09/15 10:34:02;;;;;;;;;;;;;;;;;;5021764;28;20011;-72
2022/09/15 10:36:28;;;;;;;;;;;;;;;;;;5022945;28;20371;-71
2022/09/15 10:38:54;;;;;;;;;;;;;;;;;;5019456;28;19921;-73
2022/09/15 10:41:20;;;;;;;;;;;;;;;;;;5018139;28;20371;-72
2022/09/15 10:43:46;;;;;;;;;;;;;;;;;;5018690;28;19998;-72
2022/09/15 10:46:12;;;;;;;;;;;;;;;;;;5021437;28;19920;-72
2022/09/15 10:48:38;;;;;;;;;;;;;;;;;;5003999;28;20450;-71
2022/09/15 10:51:04;;;;;;;;;;;;;;;;;;5004631;28;19936;-72
2022/09/15 10:53:30;;;;;;;;;;;;;;;;;;5014543;28;19925;-71
2022/09/15 10:55:56;;;;;;;;;;;;;;;;;;5014461;28;20621;-72
2022/09/15 10:58:22;;;;;;;;;;;;;;;;;;5002128;28;19932;-72
2022/09/15 11:00:48;;;;;;;;;;;;;;;;;;5008588;28;19979;-71
2022/09/15 11:03:14;;;;;;;;;;;;;;;;;;5020308;28;19926;-74
2022/09/15 11:05:40;;;;;;;;;;;;;;;;;;5023473;28;19921;-72
2022/09/15 11:08:06;;;;;;;;;;;;;;;;;;5028447;28;20157;-72
2022/09/15 11:10:32;;;;;;;;;;;;;;;;;;5028617;28;19932;-72
2022/09/15 11:12:58;;;;;;;;;;;;;;;;;;5029486;28;19924;-72
2022/09/15 11:15:23;;;;;;;;;;;;;;;;;;5026389;28;20043;-74
2022/09/15 11:17:49;;;;;;;;;;;;;;;;;;5028100;28;19921;-71
2022/09/15 11:20:16;;;;;;;;;;;;;;;;;;5028987;28;20350;-72
2022/09/15 11:22:42;;;;;;;;;;;;;;;;;;5027343;28;20478;-71
2022/09/15 11:25:08;;;;;;;;;;;;;;;;;;5026100;28;20021;-71
2022/09/15 11:27:33;;;;;;;;;;;;;;;;;;5027054;28;19932;-72
2022/09/15 11:30:02;;;;;;;0.70;0.40;;;;;;;;;;5028158;28;19927;-72
2022/09/15 11:32:45;;;;;;;0.82;0.38;;;;;;;;;;5024716;28;20053;-72
2022/09/15 11:35:30;;;;;;;1.15;0.52;;;;;;;;;;5020765;28;20053;-71
2022/09/15 11:37:59;;;;;;;1.02;0.45;;;;;;;;;;5027133;28;20073;-71
2022/09/15 11:40:35;;;;;;;2.05;0.80;;;;;;;;;;5027397;28;20565;-71
2022/09/15 11:43:16;;;;;;;0.80;0.32;;;;;;;;;;5024665;28;20095;-71
2022/09/15 11:45:47;;;;;;;1.33;0.55;;;;;;;;;;5014593;28;20041;-71
2022/09/15 11:48:22;;;;;;;5.85;1.08;;;;;;;;;;5015597;28;20053;-72
2022/09/15 11:50:49;;;;;;;2.38;0.82;;;;;;;;;;5020801;28;20518;-73
2022/09/15 11:53:24;;;;;;;0.60;0.40;;;;;;;;;;5022761;28;20048;-74
2022/09/15 11:55:50;;;;;;;1.40;0.40;;;;;;;;;;5014134;28;20903;-73
2022/09/15 11:58:18;;;;;;;1.05;0.55;;;;;;;;;;5025277;28;20041;-74
2022/09/15 12:00:44;;;;;;;;;;;;;;;;;;5016476;28;20000;-74
2022/09/15 12:03:10;;;;;;;;;;;;;;;;;;5011823;28;20016;-74
2022/09/15 12:05:36;;;;;;;;;;;;;;;;;;5020746;28;20218;-75
2022/09/15 12:08:02;;;;;;;;;;;;;;;;;;5024418;28;19931;-75
2022/09/15 12:10:29;;;;;;;;;;;;;;;;;;5026175;28;20565;-75
2022/09/15 12:12:55;;;;;;;;;;;;;;;;;;5018361;28;19932;-74
2022/09/15 12:15:26;;;;;;;;;;;;;;;;;;5026202;28;20004;-73
2022/09/15 12:17:52;;;;;;;;;;;;;;;;;;5025211;28;20387;-74
2022/09/15 12:20:18;;;;;;;;;;;;;;;;;;5024104;28;19917;-73
2022/09/15 12:22:43;;;;;;;;;;;;;;;;;;5023424;28;20004;-73
2022/09/15 12:25:09;;;;;;;;;;;;;;;;;;5021318;28;19928;-73
2022/09/15 12:27:35;;;;;;;;;;;;;;;;;;5017451;28;20360;-73
2022/09/15 12:30:01;;;;;;;;;;;;;;;;;;5015905;28;19932;-73
2022/09/15 12:32:27;;;;;;;;;;;;;;;;;;5023941;28;20641;-73
2022/09/15 12:34:53;;;;;;;;;;;;;;;;;;5024173;28;19954;-73
2022/09/15 12:37:19;;;;;;;;;;;;;;;;;;5024476;28;20272;-73
2022/09/15 12:39:45;;;;;;;;;;;;;;;;;;5020226;28;19956;-73
2022/09/15 12:42:13;;;;;;;;;;;;;;;;;;5022325;28;19929;-73
2022/09/15 12:44:38;;;;;;;;;;;;;;;;;;5023095;28;19927;-72
2022/09/15 12:47:05;;;;;;;;;;;;;;;;;;5017420;28;19975;-72
2022/09/15 12:49:31;;;;;;;;;;;;;;;;;;5021093;28;20122;-72
2022/09/15 12:51:57;;;;;;;;;;;;;;;;;;5018710;28;19921;-72
2022/09/15 12:54:23;;;;;;;;;;;;;;;;;;5024320;28;19972;-72
2022/09/15 12:56:49;;;;;;;;;;;;;;;;;;5022803;28;19987;-72
2022/09/15 12:59:15;;;;;;;;;;;;;;;;;;5019147;28;19983;-72
2022/09/15 13:01:41;;;;;;;;;;;;;;;;;;5022177;28;19925;-74
2022/09/15 13:04:07;;;;;;;;;;;;;;;;;;5015435;28;19925;-74
2022/09/15 13:06:33;;;;;;;;;;;;;;;;;;5023716;28;19925;-73
2022/09/15 13:08:59;;;;;;;;;;;;;;;;;;5023978;28;20299;-73
2022/09/15 13:11:25;;;;;;;;;;;;;;;;;;5018142;28;19921;-72
2022/09/15 13:13:51;;;;;;;;;;;;;;;;;;5010311;28;19929;-71
2022/09/15 13:16:17;;;;;;;;;;;;;;;;;;5007293;28;20023;-71
2022/09/15 13:18:43;;;;;;;;;;;;;;;;;;5012722;28;19929;-72
2022/09/15 13:21:09;;;;;;;;;;;;;;;;;;5016552;28;19925;-71
2022/09/15 13:23:35;;;;;;;;;;;;;;;;;;5019379;28;19925;-72
2022/09/15 13:26:01;;;;;;;;;;;;;;;;;;5012338;28;20456;-72
2022/09/15 13:28:26;;;;;;;;;;;;;;;;;;5017691;28;19925;-73
2022/09/15 13:30:52;;;;;;;;;;;;;;;;;;5021397;28;19928;-74
2022/09/15 13:33:18;;;;;;;;;;;;;;;;;;5025391;28;19925;-71
2022/09/15 13:35:44;;;;;;;;;;;;;;;;;;5020705;28;19951;-71
2022/09/15 13:38:10;;;;;;;;;;;;;;;;;;5016385;28;20331;-71
2022/09/15 13:40:55;;;;;;;1.30;0.50;;;;;;;;;;5019976;28;19925;-71
2022/09/15 13:43:36;;;;;;;2.42;0.65;;;;;;;;;;5023635;28;20861;-71
2022/09/15 13:46:20;;;;;;;2.88;0.60;;;;;;;;;;5016212;28;20568;-73
2022/09/15 13:49:06;;;;;;;1.42;0.50;;;;;;;;;;5017464;28;20435;-70
2022/09/15 13:51:33;;;;;;;1.88;0.63;;;;;;;;;;5020249;28;20111;-73
2022/09/15 13:54:20;;;;;;;2.83;0.80;;;;;;;;;;5018598;28;20116;-73
2022/09/15 13:56:47;;;;;;;1.35;0.50;;;;;;;;;;5019388;28;20049;-74
2022/09/15 13:59:26;;;;;;;1.60;0.40;;;;;;;;;;5008458;28;20053;-74
2022/09/15 14:01:53;;;;;;;;;;;;;;;;;;5013036;28;19932;-74
2022/09/15 14:04:19;;;;;;;;;;;;;;;;;;5019325;28;19924;-74
2022/09/15 14:06:44;;;;;;;;;;;;;;;;;;5018857;28;20268;-74
2022/09/15 14:09:10;;;;;;;;;;;;;;;;;;5014326;28;19921;-74
2022/09/15 14:11:36;;;;;;;;;;;;;;;;;;5009950;28;19948;-74
2022/09/15 14:14:02;;;;;;;;;;;;;;;;;;5014348;28;19925;-74
2022/09/15 14:16:28;;;;;;;;;;;;;;;;;;5011997;28;20406;-75
2022/09/15 14:18:54;;;;;;;;;;;;;;;;;;5015888;28;19922;-75
2022/09/15 14:21:20;;;;;;;;;;;;;;;;;;5017050;28;20020;-72
2022/09/15 14:23:46;;;;;;;;;;;;;;;;;;5017373;28;20681;-74
2022/09/15 14:26:12;;;;;;;;;;;;;;;;;;5014634;28;19932;-73
2022/09/15 14:28:38;;;;;;;;;;;;;;;;;;5013837;28;19976;-73
2022/09/15 14:31:04;;;;;;;;;;;;;;;;;;5016310;28;20002;-73
2022/09/15 14:33:30;;;;;;;;;;;;;;;;;;5015410;28;20360;-73
2022/09/15 14:35:55;;;;;;;;;;;;;;;;;;5019470;28;19929;-73
2022/09/15 14:38:21;;;;;;;;;;;;;;;;;;5013314;28;19976;-73
2022/09/15 14:40:47;;;;;;;;;;;;;;;;;;5014546;28;20334;-73
2022/09/15 14:43:13;;;;;;;;;;;;;;;;;;5016272;28;19925;-73
2022/09/15 14:45:39;;;;;;;;;;;;;;;;;;5015815;28;19925;-73
2022/09/15 14:48:05;;;;;;;;;;;;;;;;;;5016292;28;19921;-74
2022/09/15 14:50:32;;;;;;;;;;;;;;;;;;5021479;28;19932;-71
2022/09/15 14:52:58;;;;;;;;;;;;;;;;;;5018186;28;20020;-71
2022/09/15 14:55:23;;;;;;;;;;;;;;;;;;5011697;28;20015;-71
2022/09/15 14:57:49;;;;;;;;;;;;;;;;;;5024438;28;20000;-71
2022/09/15 15:00:15;;;;;;;;;;;;;;;;;;5025722;28;20509;-71
2022/09/15 15:02:41;;;;;;;;;;;;;;;;;;5017295;28;19925;-71
2022/09/15 15:05:07;;;;;;;;;;;;;;;;;;5009978;28;20483;-71
2022/09/15 15:07:33;;;;;;;;;;;;;;;;;;5013616;28;19925;-73
2022/09/15 15:09:59;;;;;;;;;;;;;;;;;;5010210;28;19987;-76
2022/09/15 15:12:25;;;;;;;;;;;;;;;;;;5014531;28;19962;-72
2022/09/15 15:14:51;;;;;;;;;;;;;;;;;;5009802;28;20475;-74
2022/09/15 15:17:17;;;;;;;;;;;;;;;;;;5023126;28;20530;-74
2022/09/15 15:19:43;;;;;;;;;;;;;;;;;;5023866;28;19921;-73
2022/09/15 15:22:08;;;;;;;;;;;;;;;;;;5014432;28;19918;-73
2022/09/15 15:24:34;;;;;;;;;;;;;;;;;;5013157;28;19921;-70
2022/09/15 15:27:00;;;;;;;;;;;;;;;;;;5005752;28;19921;-71
2022/09/15 15:29:27;;;;;;;;;;;;;;;;;;5005159;28;19934;-71
2022/09/15 15:31:53;;;;;;;;;;;;;;;;;;5007715;28;19925;-72
2022/09/15 15:34:19;;;;;;;;;;;;;;;;;;5013706;28;19928;-72
2022/09/15 15:36:45;;;;;;;;;;;;;;;;;;5009095;28;19932;-72
2022/09/15 15:39:11;;;;;;;;;;;;;;;;;;5019270;28;20295;-72
2022/09/15 15:41:37;;;;;;;;;;;;;;;;;;5017719;28;19931;-72
2022/09/15 15:44:06;;;;;;;;;;;;;;;;;;5015500;28;19930;-71
2022/09/15 15:46:32;;;;;;;;;;;;;;;;;;5017403;28;19925;-70
2022/09/15 15:48:59;;;;;;;;;;;;;;;;;;5011978;28;20394;-71
2022/09/15 15:51:25;;;;;;;;;;;;;;;;;;5014791;28;19928;-71
2022/09/15 15:53:51;;;;;;;;;;;;;;;;;;5023727;28;19917;-72
2022/09/15 15:56:17;;;;;;;;;;;;;;;;;;5024903;28;19925;-71
2022/09/15 15:58:43;;;;;;;;;;;;;;;;;;5022602;28;20455;-70
2022/09/15 16:01:08;;;;;;;;;;;;;;;;;;5023357;28;19921;-70
2022/09/15 16:03:34;;;;;;;;;;;;;;;;;;5024888;28;19967;-70
2022/09/15 16:06:01;;;;;;;;;;;;;;;;;;5023713;28;19929;-71
2022/09/15 16:08:27;;;;;;;;;;;;;;;;;;5023916;28;20358;-72
2022/09/15 16:10:53;;;;;;;;;;;;;;;;;;5023746;28;19925;-72
2022/09/15 16:13:19;;;;;;;;;;;;;;;;;;5023831;28;19921;-71
2022/09/15 16:15:45;;;;;;;;;;;;;;;;;;5018093;28;20008;-73
2022/09/15 16:18:11;;;;;;;;;;;;;;;;;;5022115;28;19921;-72
2022/09/15 16:20:37;;;;;;;;;;;;;;;;;;5021379;28;20012;-72
2022/09/15 16:23:03;;;;;;;;;;;;;;;;;;5023104;28;20371;-72
2022/09/15 16:25:29;;;;;;;;;;;;;;;;;;5018274;28;19925;-72
2022/09/15 16:27:55;;;;;;;;;;;;;;;;;;5012177;28;20382;-72